Terminal Aerodrome Forecast
Issued by NWS San Angelo, TX

Home | Current Version | Previous Version | Text Only | Print | Product List | Glossary On
Versions: 1 2 3 4 5 6 7 8 9 10 11 12 13 14 15 16 17 18 19 20 21 22
000
FTUS44 KSJT 220500
TAFSJT
TAF
KSJT 220539Z 2206/2306 21013KT P6SM BKN012 BKN250
      TEMPO 2206/2210 SCT012
     FM221200 23012KT P6SM SCT015 BKN250
     FM221800 31015G23KT P6SM SCT250=

USA.gov is the U.S. government's official web portal to all federal, state and local government web resources and services.